sensor_id;sensor_type;location;lat;lon;timestamp;temperature;humidity
2174;DHT22;1093;51.424;11.764;2023-04-06T00:02:17;0.40;1.40
2174;DHT22;1093;51.424;11.764;2023-04-06T00:04:44;0.40;1.40
2174;DHT22;1093;51.424;11.764;2023-04-06T00:07:11;0.30;1.40
2174;DHT22;1093;51.424;11.764;2023-04-06T00:09:37;0.30;1.40
2174;DHT22;1093;51.424;11.764;2023-04-06T00:12:04;0.30;1.40
2174;DHT22;1093;51.424;11.764;2023-04-06T00:14:32;0.20;1.40
2174;DHT22;1093;51.424;11.764;2023-04-06T00:16:59;0.20;1.40
2174;DHT22;1093;51.424;11.764;2023-04-06T00:19:26;0.20;1.40
2174;DHT22;1093;51.424;11.764;2023-04-06T00:21:53;0.20;1.40
2174;DHT22;1093;51.424;11.764;2023-04-06T00:24:20;0.20;1.40
2174;DHT22;1093;51.424;11.764;2023-04-06T00:26:46;0.20;1.40
2174;DHT22;1093;51.424;11.764;2023-04-06T00:29:13;0.20;1.40
2174;DHT22;1093;51.424;11.764;2023-04-06T00:31:41;0.20;1.40
2174;DHT22;1093;51.424;11.764;2023-04-06T00:34:09;0.20;1.40
2174;DHT22;1093;51.424;11.764;2023-04-06T00:36:35;0.20;1.40
2174;DHT22;1093;51.424;11.764;2023-04-06T00:39:02;0.20;1.40
2174;DHT22;1093;51.424;11.764;2023-04-06T00:41:29;0.20;1.40
2174;DHT22;1093;51.424;11.764;2023-04-06T00:43:56;0.20;1.40
2174;DHT22;1093;51.424;11.764;2023-04-06T00:46:23;0.20;1.40
2174;DHT22;1093;51.424;11.764;2023-04-06T00:48:51;0.20;1.40
2174;DHT22;1093;51.424;11.764;2023-04-06T00:51:18;0.20;1.40
2174;DHT22;1093;51.424;11.764;2023-04-06T00:53:45;0.20;1.40
2174;DHT22;1093;51.424;11.764;2023-04-06T00:56:11;0.20;1.40
2174;DHT22;1093;51.424;11.764;2023-04-06T00:58:38;0.20;1.40
2174;DHT22;1093;51.424;11.764;2023-04-06T01:01:06;0.20;1.40
2174;DHT22;1093;51.424;11.764;2023-04-06T01:03:32;0.20;1.40
2174;DHT22;1093;51.424;11.764;2023-04-06T01:06:01;0.20;1.40
2174;DHT22;1093;51.424;11.764;2023-04-06T01:08:27;0.20;1.40
2174;DHT22;1093;51.424;11.764;2023-04-06T01:10:54;0.20;1.40
2174;DHT22;1093;51.424;11.764;2023-04-06T01:13:21;0.20;1.40
2174;DHT22;1093;51.424;11.764;2023-04-06T01:15:48;0.20;1.40
2174;DHT22;1093;51.424;11.764;2023-04-06T01:18:15;0.20;1.40
2174;DHT22;1093;51.424;11.764;2023-04-06T01:20:41;0.20;1.40
2174;DHT22;1093;51.424;11.764;2023-04-06T01:23:09;0.20;1.40
2174;DHT22;1093;51.424;11.764;2023-04-06T01:25:36;0.20;1.40
2174;DHT22;1093;51.424;11.764;2023-04-06T01:28:03;0.10;1.40
2174;DHT22;1093;51.424;11.764;2023-04-06T01:30:30;0.10;1.40
2174;DHT22;1093;51.424;11.764;2023-04-06T01:32:57;0.10;1.40
2174;DHT22;1093;51.424;11.764;2023-04-06T01:35:25;0.10;1.40
2174;DHT22;1093;51.424;11.764;2023-04-06T01:37:52;0.10;1.40
2174;DHT22;1093;51.424;11.764;2023-04-06T01:40:20;0.10;1.40
2174;DHT22;1093;51.424;11.764;2023-04-06T01:42:47;0.10;1.40
2174;DHT22;1093;51.424;11.764;2023-04-06T01:45:14;0.10;1.40
2174;DHT22;1093;51.424;11.764;2023-04-06T01:47:40;0.10;1.40
2174;DHT22;1093;51.424;11.764;2023-04-06T01:50:08;0.10;1.40
2174;DHT22;1093;51.424;11.764;2023-04-06T01:52:35;0.00;1.40
2174;DHT22;1093;51.424;11.764;2023-04-06T01:55:02;0.00;1.40
2174;DHT22;1093;51.424;11.764;2023-04-06T01:57:30;0.10;1.40
2174;DHT22;1093;51.424;11.764;2023-04-06T01:59:56;0.20;1.40
2174;DHT22;1093;51.424;11.764;2023-04-06T02:02:23;0.10;1.40
2174;DHT22;1093;51.424;11.764;2023-04-06T02:04:50;0.00;1.40
2174;DHT22;1093;51.424;11.764;2023-04-06T02:07:17;0.00;1.40
2174;DHT22;1093;51.424;11.764;2023-04-06T02:09:43;0.00;1.40
2174;DHT22;1093;51.424;11.764;2023-04-06T02:12:10;0.00;1.40
2174;DHT22;1093;51.424;11.764;2023-04-06T02:14:38;-0.10;1.40
2174;DHT22;1093;51.424;11.764;2023-04-06T02:17:05;-0.20;1.40
2174;DHT22;1093;51.424;11.764;2023-04-06T02:19:31;-0.20;1.40
2174;DHT22;1093;51.424;11.764;2023-04-06T02:21:58;-0.30;1.40
2174;DHT22;1093;51.424;11.764;2023-04-06T02:24:25;-0.20;1.40
2174;DHT22;1093;51.424;11.764;2023-04-06T02:26:52;-0.20;1.40
2174;DHT22;1093;51.424;11.764;2023-04-06T02:29:19;-0.20;1.40
2174;DHT22;1093;51.424;11.764;2023-04-06T02:31:48;-0.10;1.40
2174;DHT22;1093;51.424;11.764;2023-04-06T02:34:14;0.10;1.40
2174;DHT22;1093;51.424;11.764;2023-04-06T02:36:43;0.00;1.40
2174;DHT22;1093;51.424;11.764;2023-04-06T02:39:09;-0.10;1.40
2174;DHT22;1093;51.424;11.764;2023-04-06T02:41:36;-0.20;1.40
2174;DHT22;1093;51.424;11.764;2023-04-06T02:44:03;-0.20;1.40
2174;DHT22;1093;51.424;11.764;2023-04-06T02:46:30;-0.10;1.40
2174;DHT22;1093;51.424;11.764;2023-04-06T02:48:58;-0.20;1.40
2174;DHT22;1093;51.424;11.764;2023-04-06T02:51:26;-0.20;1.40
2174;DHT22;1093;51.424;11.764;2023-04-06T02:53:53;-0.20;1.40
2174;DHT22;1093;51.424;11.764;2023-04-06T02:56:20;-0.20;1.40
2174;DHT22;1093;51.424;11.764;2023-04-06T02:58:47;-0.30;1.40
2174;DHT22;1093;51.424;11.764;2023-04-06T03:01:14;-0.30;1.40
2174;DHT22;1093;51.424;11.764;2023-04-06T03:03:40;-0.30;1.40
2174;DHT22;1093;51.424;11.764;2023-04-06T03:06:08;-0.40;1.40
2174;DHT22;1093;51.424;11.764;2023-04-06T03:08:35;-0.40;1.40
2174;DHT22;1093;51.424;11.764;2023-04-06T03:11:02;-0.40;1.40
2174;DHT22;1093;51.424;11.764;2023-04-06T03:13:29;-0.40;1.40
2174;DHT22;1093;51.424;11.764;2023-04-06T03:15:55;-0.50;1.40
2174;DHT22;1093;51.424;11.764;2023-04-06T03:18:24;-0.50;1.40
2174;DHT22;1093;51.424;11.764;2023-04-06T03:20:51;-0.40;1.40
2174;DHT22;1093;51.424;11.764;2023-04-06T03:23:20;-0.40;1.40
2174;DHT22;1093;51.424;11.764;2023-04-06T03:25:47;-0.50;1.40
2174;DHT22;1093;51.424;11.764;2023-04-06T03:28:14;-0.60;1.40
2174;DHT22;1093;51.424;11.764;2023-04-06T03:30:41;-0.60;1.40
2174;DHT22;1093;51.424;11.764;2023-04-06T03:33:08;-0.60;1.40
2174;DHT22;1093;51.424;11.764;2023-04-06T03:35:34;-0.70;1.40
2174;DHT22;1093;51.424;11.764;2023-04-06T03:38:02;-0.60;1.40
2174;DHT22;1093;51.424;11.764;2023-04-06T03:40:30;-0.70;1.40
2174;DHT22;1093;51.424;11.764;2023-04-06T03:42:57;-0.80;1.40
2174;DHT22;1093;51.424;11.764;2023-04-06T03:45:23;-0.80;1.40
2174;DHT22;1093;51.424;11.764;2023-04-06T03:47:50;-0.80;1.40
2174;DHT22;1093;51.424;11.764;2023-04-06T03:50:17;-0.70;1.40
2174;DHT22;1093;51.424;11.764;2023-04-06T03:52:43;-0.70;1.40
2174;DHT22;1093;51.424;11.764;2023-04-06T03:55:10;-0.80;1.40
2174;DHT22;1093;51.424;11.764;2023-04-06T03:57:38;-0.80;1.40
2174;DHT22;1093;51.424;11.764;2023-04-06T04:00:07;-0.90;1.40
2174;DHT22;1093;51.424;11.764;2023-04-06T04:02:34;-0.90;1.40
2174;DHT22;1093;51.424;11.764;2023-04-06T04:05:01;-1.00;1.40
2174;DHT22;1093;51.424;11.764;2023-04-06T04:07:28;-1.00;1.40
2174;DHT22;1093;51.424;11.764;2023-04-06T04:09:54;-1.00;1.40
2174;DHT22;1093;51.424;11.764;2023-04-06T04:12:21;-1.10;1.40
2174;DHT22;1093;51.424;11.764;2023-04-06T04:14:49;-1.10;1.40
2174;DHT22;1093;51.424;11.764;2023-04-06T04:17:16;-1.10;1.40
2174;DHT22;1093;51.424;11.764;2023-04-06T04:19:43;-1.20;1.40
2174;DHT22;1093;51.424;11.764;2023-04-06T04:22:09;-1.20;1.40
2174;DHT22;1093;51.424;11.764;2023-04-06T04:24:36;-1.20;1.40
2174;DHT22;1093;51.424;11.764;2023-04-06T04:27:03;-1.20;1.40
2174;DHT22;1093;51.424;11.764;2023-04-06T04:29:30;-1.20;1.40
2174;DHT22;1093;51.424;11.764;2023-04-06T04:31:58;-1.30;1.40
2174;DHT22;1093;51.424;11.764;2023-04-06T04:34:25;-1.30;1.40
2174;DHT22;1093;51.424;11.764;2023-04-06T04:36:51;-1.30;1.40
2174;DHT22;1093;51.424;11.764;2023-04-06T04:39:18;-1.30;1.40
2174;DHT22;1093;51.424;11.764;2023-04-06T04:41:45;-1.40;1.40
2174;DHT22;1093;51.424;11.764;2023-04-06T04:44:12;-1.40;1.40
2174;DHT22;1093;51.424;11.764;2023-04-06T04:46:38;-1.40;1.40
2174;DHT22;1093;51.424;11.764;2023-04-06T04:49:08;-1.40;1.40
2174;DHT22;1093;51.424;11.764;2023-04-06T04:51:34;-1.40;1.40
2174;DHT22;1093;51.424;11.764;2023-04-06T04:54:01;-1.40;1.40
2174;DHT22;1093;51.424;11.764;2023-04-06T04:56:28;-1.30;1.40
2174;DHT22;1093;51.424;11.764;2023-04-06T04:58:55;-1.30;1.40
2174;DHT22;1093;51.424;11.764;2023-04-06T05:01:21;-1.30;1.40
2174;DHT22;1093;51.424;11.764;2023-04-06T05:03:48;-1.30;1.40
2174;DHT22;1093;51.424;11.764;2023-04-06T05:06:16;-1.30;1.40
2174;DHT22;1093;51.424;11.764;2023-04-06T05:08:44;-1.40;1.40
2174;DHT22;1093;51.424;11.764;2023-04-06T05:11:11;-1.40;1.40
2174;DHT22;1093;51.424;11.764;2023-04-06T05:13:38;-1.50;1.40
2174;DHT22;1093;51.424;11.764;2023-04-06T05:16:05;-1.50;1.40
2174;DHT22;1093;51.424;11.764;2023-04-06T05:18:32;-1.50;1.40
2174;DHT22;1093;51.424;11.764;2023-04-06T05:20:59;-1.50;1.40
2174;DHT22;1093;51.424;11.764;2023-04-06T05:23:27;-1.50;1.40
2174;DHT22;1093;51.424;11.764;2023-04-06T05:25:54;-1.50;1.40
2174;DHT22;1093;51.424;11.764;2023-04-06T05:28:20;-1.50;1.40
2174;DHT22;1093;51.424;11.764;2023-04-06T05:30:47;-1.50;1.40
2174;DHT22;1093;51.424;11.764;2023-04-06T05:33:14;-1.60;1.40
2174;DHT22;1093;51.424;11.764;2023-04-06T05:35:41;-1.60;1.40
2174;DHT22;1093;51.424;11.764;2023-04-06T05:38:08;-1.60;1.40
2174;DHT22;1093;51.424;11.764;2023-04-06T05:40:37;-1.60;1.40
2174;DHT22;1093;51.424;11.764;2023-04-06T05:43:06;-1.60;1.40
2174;DHT22;1093;51.424;11.764;2023-04-06T05:45:33;-1.60;1.40
2174;DHT22;1093;51.424;11.764;2023-04-06T05:48:00;-1.60;1.40
2174;DHT22;1093;51.424;11.764;2023-04-06T05:50:27;-1.60;1.40
2174;DHT22;1093;51.424;11.764;2023-04-06T05:52:54;-1.60;1.40
2174;DHT22;1093;51.424;11.764;2023-04-06T05:55:20;-1.60;1.40
2174;DHT22;1093;51.424;11.764;2023-04-06T05:57:49;-1.60;1.40
2174;DHT22;1093;51.424;11.764;2023-04-06T06:00:16;-1.50;1.40
2174;DHT22;1093;51.424;11.764;2023-04-06T06:02:43;-1.50;1.40
2174;DHT22;1093;51.424;11.764;2023-04-06T06:05:10;-1.50;1.40
2174;DHT22;1093;51.424;11.764;2023-04-06T06:07:37;-1.40;1.40
2174;DHT22;1093;51.424;11.764;2023-04-06T06:10:04;-1.50;1.40
2174;DHT22;1093;51.424;11.764;2023-04-06T06:12:31;-1.40;1.40
2174;DHT22;1093;51.424;11.764;2023-04-06T06:14:59;-1.40;1.40
2174;DHT22;1093;51.424;11.764;2023-04-06T06:17:26;-1.40;1.40
2174;DHT22;1093;51.424;11.764;2023-04-06T06:19:52;-1.30;1.40
2174;DHT22;1093;51.424;11.764;2023-04-06T06:22:19;-1.30;1.40
2174;DHT22;1093;51.424;11.764;2023-04-06T06:24:46;-1.20;1.40
2174;DHT22;1093;51.424;11.764;2023-04-06T06:27:13;-1.10;1.40
2174;DHT22;1093;51.424;11.764;2023-04-06T06:29:39;-1.10;1.40
2174;DHT22;1093;51.424;11.764;2023-04-06T06:32:07;-1.00;1.40
2174;DHT22;1093;51.424;11.764;2023-04-06T06:34:35;-1.00;1.40
2174;DHT22;1093;51.424;11.764;2023-04-06T06:37:02;-0.80;1.40
2174;DHT22;1093;51.424;11.764;2023-04-06T06:39:28;-0.80;1.40
2174;DHT22;1093;51.424;11.764;2023-04-06T06:41:55;-0.60;1.40
2174;DHT22;1093;51.424;11.764;2023-04-06T06:44:22;-0.60;1.40
2174;DHT22;1093;51.424;11.764;2023-04-06T06:46:49;-0.30;1.40
2174;DHT22;1093;51.424;11.764;2023-04-06T06:49:17;-0.20;1.40
2174;DHT22;1093;51.424;11.764;2023-04-06T06:51:44;0.00;1.40
2174;DHT22;1093;51.424;11.764;2023-04-06T06:54:11;0.20;1.40
2174;DHT22;1093;51.424;11.764;2023-04-06T06:56:38;0.40;1.40
2174;DHT22;1093;51.424;11.764;2023-04-06T06:59:05;0.60;1.40
2174;DHT22;1093;51.424;11.764;2023-04-06T07:01:32;0.80;1.40
2174;DHT22;1093;51.424;11.764;2023-04-06T07:03:59;1.00;1.40
2174;DHT22;1093;51.424;11.764;2023-04-06T07:06:27;1.30;1.40
2174;DHT22;1093;51.424;11.764;2023-04-06T07:08:54;1.50;1.40
2174;DHT22;1093;51.424;11.764;2023-04-06T07:11:20;1.70;1.40
2174;DHT22;1093;51.424;11.764;2023-04-06T07:13:47;1.70;1.40
2174;DHT22;1093;51.424;11.764;2023-04-06T07:16:14;1.90;1.40
2174;DHT22;1093;51.424;11.764;2023-04-06T07:18:40;2.00;1.40
2174;DHT22;1093;51.424;11.764;2023-04-06T07:21:07;2.20;1.40
2174;DHT22;1093;51.424;11.764;2023-04-06T07:23:35;2.30;1.40
2174;DHT22;1093;51.424;11.764;2023-04-06T07:26:02;2.50;1.40
2174;DHT22;1093;51.424;11.764;2023-04-06T07:28:29;2.70;1.40
2174;DHT22;1093;51.424;11.764;2023-04-06T07:30:55;2.90;1.40
2174;DHT22;1093;51.424;11.764;2023-04-06T07:33:22;3.10;1.40
2174;DHT22;1093;51.424;11.764;2023-04-06T07:35:49;3.30;1.40
2174;DHT22;1093;51.424;11.764;2023-04-06T07:38:16;3.40;1.40
2174;DHT22;1093;51.424;11.764;2023-04-06T07:40:46;3.50;1.40
2174;DHT22;1093;51.424;11.764;2023-04-06T07:43:12;3.60;1.40
2174;DHT22;1093;51.424;11.764;2023-04-06T07:45:39;3.80;1.40
2174;DHT22;1093;51.424;11.764;2023-04-06T07:48:06;3.90;1.40
2174;DHT22;1093;51.424;11.764;2023-04-06T07:50:33;4.10;1.40
2174;DHT22;1093;51.424;11.764;2023-04-06T07:52:59;4.20;1.40
2174;DHT22;1093;51.424;11.764;2023-04-06T07:55:26;4.40;1.40
2174;DHT22;1093;51.424;11.764;2023-04-06T07:57:54;4.50;1.40
2174;DHT22;1093;51.424;11.764;2023-04-06T08:00:21;4.60;1.40
2174;DHT22;1093;51.424;11.764;2023-04-06T08:02:48;4.80;1.40
2174;DHT22;1093;51.424;11.764;2023-04-06T08:05:15;4.90;1.40
2174;DHT22;1093;51.424;11.764;2023-04-06T08:07:41;5.10;1.40
2174;DHT22;1093;51.424;11.764;2023-04-06T08:10:09;5.20;1.40
2174;DHT22;1093;51.424;11.764;2023-04-06T08:12:36;5.40;1.40
2174;DHT22;1093;51.424;11.764;2023-04-06T08:15:05;5.50;1.40
2174;DHT22;1093;51.424;11.764;2023-04-06T08:17:32;5.70;1.40
2174;DHT22;1093;51.424;11.764;2023-04-06T08:19:59;5.80;1.40
2174;DHT22;1093;51.424;11.764;2023-04-06T08:22:26;6.00;1.40
2174;DHT22;1093;51.424;11.764;2023-04-06T08:24:53;6.20;1.40
2174;DHT22;1093;51.424;11.764;2023-04-06T08:27:20;6.30;1.40
2174;DHT22;1093;51.424;11.764;2023-04-06T08:29:49;6.50;1.40
2174;DHT22;1093;51.424;11.764;2023-04-06T08:32:17;6.70;1.40
2174;DHT22;1093;51.424;11.764;2023-04-06T08:34:44;6.80;1.40
